sensor_id;sensor_type;location;lat;lon;timestamp;pressure;altitude;pressure_sealevel;temperature;humidity
78317;BME280;67572;50.930;18.276;2023-03-02T00:02:01;99950.25;;;-3.45;72.97
78317;BME280;67572;50.930;18.276;2023-03-02T00:05:09;99951.09;;;-3.66;73.77
78317;BME280;67572;50.930;18.276;2023-03-02T00:08:17;99943.31;;;-3.50;73.13
78317;BME280;67572;50.930;18.276;2023-03-02T00:11:25;99944.19;;;-3.45;73.67
78317;BME280;67572;50.930;18.276;2023-03-02T00:14:45;99946.78;;;-3.41;73.90
78317;BME280;67572;50.930;18.276;2023-03-02T00:17:54;99952.88;;;-3.39;74.02
78317;BME280;67572;50.930;18.276;2023-03-02T00:21:00;99951.97;;;-3.60;74.18
78317;BME280;67572;50.930;18.276;2023-03-02T00:24:07;99945.03;;;-3.58;74.24
78317;BME280;67572;50.930;18.276;2023-03-02T00:27:13;99947.63;;;-3.58;74.60
78317;BME280;67572;50.930;18.276;2023-03-02T00:30:21;99949.38;;;-2.90;74.32
78317;BME280;67572;50.930;18.276;2023-03-02T00:33:29;99941.59;;;-3.15;74.01
78317;BME280;67572;50.930;18.276;2023-03-02T00:36:37;99936.38;;;-3.41;74.56
78317;BME280;67572;50.930;18.276;2023-03-02T00:39:42;99940.72;;;-3.47;74.78
78317;BME280;67572;50.930;18.276;2023-03-02T00:42:51;99938.97;;;-3.67;74.35
78317;BME280;67572;50.930;18.276;2023-03-02T00:46:07;99929.41;;;-3.74;74.90
78317;BME280;67572;50.930;18.276;2023-03-02T00:49:16;99925.94;;;-3.83;75.60
78317;BME280;67572;50.930;18.276;2023-03-02T00:52:22;99926.78;;;-4.00;74.89
78317;BME280;67572;50.930;18.276;2023-03-02T00:55:29;99930.25;;;-3.88;74.16
78317;BME280;67572;50.930;18.276;2023-03-02T00:58:35;99925.06;;;-3.85;73.71
78317;BME280;67572;50.930;18.276;2023-03-02T01:01:42;99933.72;;;-3.88;73.57
78317;BME280;67572;50.930;18.276;2023-03-02T01:05:02;99926.78;;;-3.98;74.39
78317;BME280;67572;50.930;18.276;2023-03-02T01:08:09;99913.81;;;-3.91;74.99
78317;BME280;67572;50.930;18.276;2023-03-02T01:11:20;99912.94;;;-3.91;75.76
78317;BME280;67572;50.930;18.276;2023-03-02T01:14:28;99917.25;;;-3.93;75.99
78317;BME280;67572;50.930;18.276;2023-03-02T01:17:35;99899.97;;;-3.65;75.95
78317;BME280;67572;50.930;18.276;2023-03-02T01:20:45;99895.66;;;-3.49;75.21
78317;BME280;67572;50.930;18.276;2023-03-02T01:23:52;99899.06;;;-3.88;75.76
78317;BME280;67572;50.930;18.276;2023-03-02T01:26:59;99897.34;;;-3.91;75.94
78317;BME280;67572;50.930;18.276;2023-03-02T01:30:06;99892.19;;;-3.35;74.40
78317;BME280;67572;50.930;18.276;2023-03-02T01:33:13;99886.09;;;-3.15;73.27
78317;BME280;67572;50.930;18.276;2023-03-02T01:36:21;99891.31;;;-3.41;73.60
78317;BME280;67572;50.930;18.276;2023-03-02T01:39:32;99880.91;;;-3.59;74.96
78317;BME280;67572;50.930;18.276;2023-03-02T01:42:38;99879.19;;;-3.44;74.85
78317;BME280;67572;50.930;18.276;2023-03-02T01:45:54;99873.97;;;-3.41;75.48
78317;BME280;67572;50.930;18.276;2023-03-02T01:49:23;99871.34;;;-3.18;75.38
78317;BME280;67572;50.930;18.276;2023-03-02T01:52:36;99870.47;;;-3.11;75.51
78317;BME280;67572;50.930;18.276;2023-03-02T01:55:43;99870.50;;;-3.29;75.94
78317;BME280;67572;50.930;18.276;2023-03-02T01:58:51;99881.78;;;-3.36;76.25
78317;BME280;67572;50.930;18.276;2023-03-02T02:02:02;99873.97;;;-3.67;75.60
78317;BME280;67572;50.930;18.276;2023-03-02T02:05:12;99865.31;;;-3.64;75.36
78317;BME280;67572;50.930;18.276;2023-03-02T02:08:20;99869.63;;;-3.63;75.71
78317;BME280;67572;50.930;18.276;2023-03-02T02:11:26;99864.44;;;-3.57;75.23
78317;BME280;67572;50.930;18.276;2023-03-02T02:14:33;99867.03;;;-3.71;75.53
78317;BME280;67572;50.930;18.276;2023-03-02T02:17:43;99866.16;;;-3.88;76.31
78317;BME280;67572;50.930;18.276;2023-03-02T02:20:51;99864.44;;;-3.80;76.09
78317;BME280;67572;50.930;18.276;2023-03-02T02:24:06;99867.91;;;-3.72;75.18
78317;BME280;67572;50.930;18.276;2023-03-02T02:27:18;99864.44;;;-3.95;75.25
78317;BME280;67572;50.930;18.276;2023-03-02T02:30:25;99855.81;;;-3.70;73.86
78317;BME280;67572;50.930;18.276;2023-03-02T02:33:40;99850.59;;;-3.70;73.56
78317;BME280;67572;50.930;18.276;2023-03-02T02:36:51;99851.44;;;-3.86;74.82
78317;BME280;67572;50.930;18.276;2023-03-02T02:40:02;99847.13;;;-3.75;75.31
78317;BME280;67572;50.930;18.276;2023-03-02T02:43:16;99843.66;;;-3.75;76.22
78317;BME280;67572;50.930;18.276;2023-03-02T02:46:22;99848.88;;;-3.77;76.36
78317;BME280;67572;50.930;18.276;2023-03-02T02:49:32;99841.94;;;-3.81;76.23
78317;BME280;67572;50.930;18.276;2023-03-02T02:52:40;99841.06;;;-3.84;76.50
78317;BME280;67572;50.930;18.276;2023-03-02T02:55:51;99833.28;;;-3.83;76.75
78317;BME280;67572;50.930;18.276;2023-03-02T02:59:13;99835.00;;;-3.39;76.38
78317;BME280;67572;50.930;18.276;2023-03-02T03:02:25;99830.63;;;-4.01;76.20
78317;BME280;67572;50.930;18.276;2023-03-02T03:05:33;99833.19;;;-4.24;76.48
78317;BME280;67572;50.930;18.276;2023-03-02T03:08:59;99831.47;;;-4.16;76.64
78317;BME280;67572;50.930;18.276;2023-03-02T03:12:15;99829.78;;;-4.06;76.17
78317;BME280;67572;50.930;18.276;2023-03-02T03:15:22;99828.06;;;-3.78;76.39
78317;BME280;67572;50.930;18.276;2023-03-02T03:18:29;99825.44;;;-4.12;76.12
78317;BME280;67572;50.930;18.276;2023-03-02T03:21:35;99827.22;;;-4.00;75.85
78317;BME280;67572;50.930;18.276;2023-03-02T03:24:44;99823.69;;;-4.24;76.31
78317;BME280;67572;50.930;18.276;2023-03-02T03:27:52;99821.97;;;-4.23;76.18
78317;BME280;67572;50.930;18.276;2023-03-02T03:30:59;99822.88;;;-3.89;76.15
78317;BME280;67572;50.930;18.276;2023-03-02T03:34:05;99815.91;;;-4.28;76.46
78317;BME280;67572;50.930;18.276;2023-03-02T03:37:15;99815.94;;;-3.85;76.04
78317;BME280;67572;50.930;18.276;2023-03-02T03:40:28;99802.06;;;-3.65;75.49
78317;BME280;67572;50.930;18.276;2023-03-02T03:43:38;99809.00;;;-3.71;75.75
78317;BME280;67572;50.930;18.276;2023-03-02T03:46:43;99809.03;;;-3.77;74.76
78317;BME280;67572;50.930;18.276;2023-03-02T03:49:48;99804.66;;;-4.38;75.87
78317;BME280;67572;50.930;18.276;2023-03-02T03:52:56;99804.66;;;-4.16;76.62
78317;BME280;67572;50.930;18.276;2023-03-02T03:56:06;99810.72;;;-4.11;76.50
78317;BME280;67572;50.930;18.276;2023-03-02T03:59:14;99797.72;;;-4.16;76.25
78317;BME280;67572;50.930;18.276;2023-03-02T04:02:29;99803.81;;;-4.02;76.37
78317;BME280;67572;50.930;18.276;2023-03-02T04:05:36;99807.28;;;-4.04;76.09
78317;BME280;67572;50.930;18.276;2023-03-02T04:08:41;99797.75;;;-4.07;75.69
78317;BME280;67572;50.930;18.276;2023-03-02T04:11:49;99797.72;;;-4.08;76.12
78317;BME280;67572;50.930;18.276;2023-03-02T04:14:57;99798.59;;;-4.22;75.74
78317;BME280;67572;50.930;18.276;2023-03-02T04:18:06;99791.72;;;-4.07;75.86
78317;BME280;67572;50.930;18.276;2023-03-02T04:21:22;99798.59;;;-4.09;76.60
78317;BME280;67572;50.930;18.276;2023-03-02T04:24:28;99797.75;;;-4.04;77.26
78317;BME280;67572;50.930;18.276;2023-03-02T04:27:37;99802.09;;;-4.04;77.60
78317;BME280;67572;50.930;18.276;2023-03-02T04:30:42;99801.19;;;-4.25;78.06
78317;BME280;67572;50.930;18.276;2023-03-02T04:33:49;99804.66;;;-4.09;77.33
78317;BME280;67572;50.930;18.276;2023-03-02T04:36:53;99808.16;;;-3.99;76.98
78317;BME280;67572;50.930;18.276;2023-03-02T04:40:01;99803.81;;;-3.80;77.07
78317;BME280;67572;50.930;18.276;2023-03-02T04:43:07;99800.38;;;-3.84;76.79
78317;BME280;67572;50.930;18.276;2023-03-02T04:46:17;99797.75;;;-3.79;77.06
78317;BME280;67572;50.930;18.276;2023-03-02T04:49:24;99792.56;;;-3.78;76.69
78317;BME280;67572;50.930;18.276;2023-03-02T04:52:29;99781.28;;;-3.65;76.50
78317;BME280;67572;50.930;18.276;2023-03-02T04:55:34;99796.91;;;-3.91;77.14
78317;BME280;67572;50.930;18.276;2023-03-02T04:58:39;99785.63;;;-4.03;76.90
78317;BME280;67572;50.930;18.276;2023-03-02T05:01:45;99798.63;;;-3.97;76.82
78317;BME280;67572;50.930;18.276;2023-03-02T05:04:52;99799.50;;;-3.98;76.18
78317;BME280;67572;50.930;18.276;2023-03-02T05:07:57;99801.19;;;-4.28;76.60
78317;BME280;67572;50.930;18.276;2023-03-02T05:11:06;99799.47;;;-4.30;76.45
78317;BME280;67572;50.930;18.276;2023-03-02T05:14:13;99802.91;;;-4.27;76.65
78317;BME280;67572;50.930;18.276;2023-03-02T05:17:18;99795.13;;;-4.16;76.94
78317;BME280;67572;50.930;18.276;2023-03-02T05:20:25;99805.53;;;-4.18;76.69
78317;BME280;67572;50.930;18.276;2023-03-02T05:23:34;99804.66;;;-4.20;76.67
78317;BME280;67572;50.930;18.276;2023-03-02T05:26:43;99806.38;;;-4.29;76.78
78317;BME280;67572;50.930;18.276;2023-03-02T05:29:48;99816.78;;;-4.28;76.99
78317;BME280;67572;50.930;18.276;2023-03-02T05:32:53;99811.59;;;-4.17;76.79
78317;BME280;67572;50.930;18.276;2023-03-02T05:36:00;99815.94;;;-4.04;76.43
78317;BME280;67572;50.930;18.276;2023-03-02T05:39:08;99819.34;;;-4.34;76.74
78317;BME280;67572;50.930;18.276;2023-03-02T05:42:12;99822.81;;;-4.32;76.41
78317;BME280;67572;50.930;18.276;2023-03-02T05:45:25;99821.06;;;-4.34;76.69
78317;BME280;67572;50.930;18.276;2023-03-02T05:48:30;99826.25;;;-4.45;77.17
78317;BME280;67572;50.930;18.276;2023-03-02T05:51:38;99822.81;;;-4.32;76.80
78317;BME280;67572;50.930;18.276;2023-03-02T05:54:47;99821.94;;;-4.34;76.63
78317;BME280;67572;50.930;18.276;2023-03-02T05:57:51;99821.09;;;-4.21;77.31
78317;BME280;67572;50.930;18.276;2023-03-02T06:00:58;99821.09;;;-4.19;76.68
78317;BME280;67572;50.930;18.276;2023-03-02T06:04:02;99817.66;;;-4.23;76.30
78317;BME280;67572;50.930;18.276;2023-03-02T06:07:09;99826.31;;;-4.14;76.70
78317;BME280;67572;50.930;18.276;2023-03-02T06:10:15;99830.66;;;-4.00;77.22
78317;BME280;67572;50.930;18.276;2023-03-02T06:13:24;99828.09;;;-3.92;77.03
78317;BME280;67572;50.930;18.276;2023-03-02T06:16:30;99828.94;;;-3.59;76.88
78317;BME280;67572;50.930;18.276;2023-03-02T06:19:36;99831.53;;;-3.56;77.14
78317;BME280;67572;50.930;18.276;2023-03-02T06:22:43;99828.94;;;-3.61;76.78
78317;BME280;67572;50.930;18.276;2023-03-02T06:25:50;99834.13;;;-3.96;77.42
78317;BME280;67572;50.930;18.276;2023-03-02T06:28:54;99841.06;;;-3.68;77.19
78317;BME280;67572;50.930;18.276;2023-03-02T06:31:58;99837.59;;;-3.39;76.97
78317;BME280;67572;50.930;18.276;2023-03-02T06:35:04;99833.25;;;-3.43;76.16
78317;BME280;67572;50.930;18.276;2023-03-02T06:38:09;99848.00;;;-3.47;76.28
78317;BME280;67572;50.930;18.276;2023-03-02T06:41:13;99842.72;;;-3.12;76.07
78317;BME280;67572;50.930;18.276;2023-03-02T06:44:18;99841.03;;;-3.17;76.38
78317;BME280;67572;50.930;18.276;2023-03-02T06:47:24;99844.41;;;-2.88;76.17
78317;BME280;67572;50.930;18.276;2023-03-02T06:50:30;99842.63;;;-2.73;76.10
78317;BME280;67572;50.930;18.276;2023-03-02T06:53:37;99846.84;;;-2.49;75.50
78317;BME280;67572;50.930;18.276;2023-03-02T06:56:43;99844.19;;;-2.36;75.54
78317;BME280;67572;50.930;18.276;2023-03-02T06:59:48;99844.97;;;-2.21;76.73
78317;BME280;67572;50.930;18.276;2023-03-02T07:02:54;99844.00;;;-2.05;76.69
78317;BME280;67572;50.930;18.276;2023-03-02T07:05:59;99850.97;;;-2.03;77.32
78317;BME280;67572;50.930;18.276;2023-03-02T07:09:06;99843.91;;;-1.91;76.87
78317;BME280;67572;50.930;18.276;2023-03-02T07:12:11;99839.69;;;-2.06;76.71
78317;BME280;67572;50.930;18.276;2023-03-02T07:15:15;99844.81;;;-1.92;77.07
78317;BME280;67572;50.930;18.276;2023-03-02T07:18:20;99840.50;;;-1.95;77.09
78317;BME280;67572;50.930;18.276;2023-03-02T07:21:26;99842.06;;;-1.73;76.25
78317;BME280;67572;50.930;18.276;2023-03-02T07:24:33;99838.41;;;-1.50;75.82
78317;BME280;67572;50.930;18.276;2023-03-02T07:27:39;99841.00;;;-1.49;75.74
78317;BME280;67572;50.930;18.276;2023-03-02T07:30:44;99835.69;;;-1.40;75.90
78317;BME280;67572;50.930;18.276;2023-03-02T07:33:50;99834.59;;;-1.16;74.91
78317;BME280;67572;50.930;18.276;2023-03-02T07:36:56;99826.13;;;-0.61;72.65
78317;BME280;67572;50.930;18.276;2023-03-02T07:40:03;99826.91;;;-0.52;70.99
78317;BME280;67572;50.930;18.276;2023-03-02T07:43:09;99824.16;;;-0.42;71.34
78317;BME280;67572;50.930;18.276;2023-03-02T07:46:14;99822.34;;;-0.35;71.08
78317;BME280;67572;50.930;18.276;2023-03-02T07:49:20;99823.00;;;-0.21;71.45
78317;BME280;67572;50.930;18.276;2023-03-02T07:52:30;99829.97;;;-0.23;70.89
78317;BME280;67572;50.930;18.276;2023-03-02T07:55:40;99823.88;;;-0.20;71.82
78317;BME280;67572;50.930;18.276;2023-03-02T07:58:58;99826.63;;;0.27;70.08
78317;BME280;67572;50.930;18.276;2023-03-02T08:02:16;99829.22;;;0.29;70.42
78317;BME280;67572;50.930;18.276;2023-03-02T08:05:23;99828.47;;;0.21;70.18
78317;BME280;67572;50.930;18.276;2023-03-02T08:08:30;99826.38;;;0.43;69.47
78317;BME280;67572;50.930;18.276;2023-03-02T08:11:42;99826.06;;;0.63;70.15
78317;BME280;67572;50.930;18.276;2023-03-02T08:14:49;99831.91;;;0.77;70.13
78317;BME280;67572;50.930;18.276;2023-03-02T08:17:54;99827.09;;;1.02;69.98
78317;BME280;67572;50.930;18.276;2023-03-02T08:20:58;99823.06;;;0.84;69.84
78317;BME280;67572;50.930;18.276;2023-03-02T08:24:04;99831.94;;;1.22;69.93
78317;BME280;67572;50.930;18.276;2023-03-02T08:27:13;99827.72;;;1.15;70.56
78317;BME280;67572;50.930;18.276;2023-03-02T08:30:19;99831.22;;;1.15;70.64
78317;BME280;67572;50.930;18.276;2023-03-02T08:33:25;99830.00;;;1.31;70.69
78317;BME280;67572;50.930;18.276;2023-03-02T08:36:32;99822.34;;;1.22;70.86
78317;BME280;67572;50.930;18.276;2023-03-02T08:39:38;99827.84;;;1.52;70.67
78317;BME280;67572;50.930;18.276;2023-03-02T08:42:45;99817.22;;;1.59;68.51
78317;BME280;67572;50.930;18.276;2023-03-02T08:45:54;99824.63;;;1.79;68.39
78317;BME280;67572;50.930;18.276;2023-03-02T08:49:01;99822.78;;;1.84;68.70
78317;BME280;67572;50.930;18.276;2023-03-02T08:52:16;99818.72;;;2.08;64.60
78317;BME280;67572;50.930;18.276;2023-03-02T08:55:22;99816.41;;;2.32;61.85
78317;BME280;67572;50.930;18.276;2023-03-02T08:58:30;99819.28;;;2.58;60.89
78317;BME280;67572;50.930;18.276;2023-03-02T09:01:36;99815.84;;;2.55;63.18
78317;BME280;67572;50.930;18.276;2023-03-02T09:04:42;99811.16;;;2.67;62.42
78317;BME280;67572;50.930;18.276;2023-03-02T09:07:46;99814.34;;;2.80;61.64
78317;BME280;67572;50.930;18.276;2023-03-02T09:10:52;99816.31;;;2.70;61.69
78317;BME280;67572;50.930;18.276;2023-03-02T09:13:59;99809.75;;;2.88;61.21
78317;BME280;67572;50.930;18.276;2023-03-02T09:17:04;99799.28;;;2.85;61.25
78317;BME280;67572;50.930;18.276;2023-03-02T09:20:10;99798.03;;;3.31;60.25
78317;BME280;67572;50.930;18.276;2023-03-02T09:23:16;99800.59;;;3.34;59.92
78317;BME280;67572;50.930;18.276;2023-03-02T09:26:22;99796.88;;;3.41;60.23
78317;BME280;67572;50.930;18.276;2023-03-02T09:29:29;99797.13;;;3.63;59.13
78317;BME280;67572;50.930;18.276;2023-03-02T09:32:34;99792.84;;;3.59;59.47
78317;BME280;67572;50.930;18.276;2023-03-02T09:35:40;99786.03;;;3.81;59.51
78317;BME280;67572;50.930;18.276;2023-03-02T09:38:44;99789.75;;;4.02;59.14
78317;BME280;67572;50.930;18.276;2023-03-02T09:42:10;99774.75;;;4.32;59.22
78317;BME280;67572;50.930;18.276;2023-03-02T09:45:27;99775.41;;;4.39;58.28
78317;BME280;67572;50.930;18.276;2023-03-02T09:48:40;99782.00;;;4.26;58.83
78317;BME280;67572;50.930;18.276;2023-03-02T09:52:01;99778.47;;;4.52;58.24
78317;BME280;67572;50.930;18.276;2023-03-02T09:55:14;99775.34;;;5.17;58.22
78317;BME280;67572;50.930;18.276;2023-03-02T09:58:22;99775.97;;;4.98;57.66
78317;BME280;67572;50.930;18.276;2023-03-02T10:01:36;99770.13;;;4.90;56.88
78317;BME280;67572;50.930;18.276;2023-03-02T10:04:46;99768.06;;;5.23;56.95
78317;BME280;67572;50.930;18.276;2023-03-02T10:07:52;99772.19;;;5.07;56.02
78317;BME280;67572;50.930;18.276;2023-03-02T10:11:05;99770.78;;;5.20;56.35
78317;BME280;67572;50.930;18.276;2023-03-02T10:14:21;99773.28;;;5.48;56.92
78317;BME280;67572;50.930;18.276;2023-03-02T10:17:40;99759.16;;;5.49;55.29
78317;BME280;67572;50.930;18.276;2023-03-02T10:20:51;99754.22;;;6.09;54.55
78317;BME280;67572;50.930;18.276;2023-03-02T10:24:01;99760.25;;;5.91;55.44
78317;BME280;67572;50.930;18.276;2023-03-02T10:27:13;99760.25;;;5.89;55.80
78317;BME280;67572;50.930;18.276;2023-03-02T10:30:23;99757.72;;;6.31;54.40
78317;BME280;67572;50.930;18.276;2023-03-02T10:33:32;99752.53;;;5.84;55.33
78317;BME280;67572;50.930;18.276;2023-03-02T10:36:40;99747.84;;;6.15;54.68
78317;BME280;67572;50.930;18.276;2023-03-02T10:39:46;99752.81;;;6.22;54.56
78317;BME280;67572;50.930;18.276;2023-03-02T10:42:53;99749.72;;;6.33;54.45
78317;BME280;67572;50.930;18.276;2023-03-02T10:46:02;99744.72;;;6.47;54.27
78317;BME280;67572;50.930;18.276;2023-03-02T10:49:28;99745.06;;;6.60;53.92
78317;BME280;67572;50.930;18.276;2023-03-02T10:52:33;99745.00;;;6.61;54.29
78317;BME280;67572;50.930;18.276;2023-03-02T10:55:44;99738.44;;;6.70;53.07
78317;BME280;67572;50.930;18.276;2023-03-02T10:58:50;99742.97;;;6.88;53.70
78317;BME280;67572;50.930;18.276;2023-03-02T11:01:58;99737.25;;;6.57;53.85
78317;BME280;67572;50.930;18.276;2023-03-02T11:05:22;99734.81;;;6.52;53.72
78317;BME280;67572;50.930;18.276;2023-03-02T11:08:30;99740.75;;;6.98;53.60
78317;BME280;67572;50.930;18.276;2023-03-02T11:11:35;99729.75;;;6.88;52.81
78317;BME280;67572;50.930;18.276;2023-03-02T11:14:41;99728.72;;;6.91;53.69
78317;BME280;67572;50.930;18.276;2023-03-02T11:17:48;99709.47;;;7.08;53.42
78317;BME280;67572;50.930;18.276;2023-03-02T11:21:01;99710.84;;;7.54;52.98
78317;BME280;67572;50.930;18.276;2023-03-02T11:24:11;99712.28;;;7.61;53.92
78317;BME280;67572;50.930;18.276;2023-03-02T11:27:21;99705.66;;;7.34;53.53
78317;BME280;67572;50.930;18.276;2023-03-02T11:30:30;99704.78;;;7.33;54.55
78317;BME280;67572;50.930;18.276;2023-03-02T11:33:43;99699.66;;;7.49;54.90
78317;BME280;67572;50.930;18.276;2023-03-02T11:37:03;99693.53;;;7.09;54.10
78317;BME280;67572;50.930;18.276;2023-03-02T11:40:20;99688.47;;;7.61;52.60
78317;BME280;67572;50.930;18.276;2023-03-02T11:43:26;99682.59;;;8.27;51.56
78317;BME280;67572;50.930;18.276;2023-03-02T11:46:32;99678.84;;;8.31;51.79
78317;BME280;67572;50.930;18.276;2023-03-02T11:49:41;99679.03;;;8.63;51.41
78317;BME280;67572;50.930;18.276;2023-03-02T11:52:51;99674.31;;;7.98;51.81
78317;BME280;67572;50.930;18.276;2023-03-02T11:55:58;99668.41;;;8.28;52.48
78317;BME280;67572;50.930;18.276;2023-03-02T11:59:12;99659.88;;;8.40;51.60
78317;BME280;67572;50.930;18.276;2023-03-02T12:02:19;99661.03;;;8.52;50.68
78317;BME280;67572;50.930;18.276;2023-03-02T12:05:27;99662.59;;;8.56;51.36
78317;BME280;67572;50.930;18.276;2023-03-02T12:08:37;99657.75;;;8.97;51.21
78317;BME280;67572;50.930;18.276;2023-03-02T12:11:45;99650.06;;;9.08;51.26
78317;BME280;67572;50.930;18.276;2023-03-02T12:14:50;99648.91;;;8.29;51.85
78317;BME280;67572;50.930;18.276;2023-03-02T12:17:55;99643.91;;;9.08;50.42
78317;BME280;67572;50.930;18.276;2023-03-02T12:21:02;99640.72;;;8.68;49.88
78317;BME280;67572;50.930;18.276;2023-03-02T12:24:24;99640.56;;;9.20;50.85
78317;BME280;67572;50.930;18.276;2023-03-02T12:27:35;99627.88;;;8.78;51.63
78317;BME280;67572;50.930;18.276;2023-03-02T12:30:41;99622.56;;;8.60;51.67
78317;BME280;67572;50.930;18.276;2023-03-02T12:33:49;99625.22;;;8.78;49.78
78317;BME280;67572;50.930;18.276;2023-03-02T12:36:57;99627.16;;;9.07;49.38
78317;BME280;67572;50.930;18.276;2023-03-02T12:40:31;99613.81;;;9.25;49.56
78317;BME280;67572;50.930;18.276;2023-03-02T12:43:43;99619.94;;;9.57;49.11
78317;BME280;67572;50.930;18.276;2023-03-02T12:46:52;99612.66;;;9.29;50.34
78317;BME280;67572;50.930;18.276;2023-03-02T12:50:01;99605.63;;;9.75;49.12
78317;BME280;67572;50.930;18.276;2023-03-02T12:53:16;99602.53;;;8.72;50.33
78317;BME280;67572;50.930;18.276;2023-03-02T12:56:23;99597.91;;;8.43;51.59
78317;BME280;67572;50.930;18.276;2023-03-02T12:59:30;99607.63;;;8.93;49.47
78317;BME280;67572;50.930;18.276;2023-03-02T13:02:36;99603.19;;;9.09;48.65
78317;BME280;67572;50.930;18.276;2023-03-02T13:05:48;99596.25;;;9.38;49.20
78317;BME280;67572;50.930;18.276;2023-03-02T13:08:56;99590.78;;;9.25;50.18
78317;BME280;67572;50.930;18.276;2023-03-02T13:12:11;99583.25;;;8.69;49.74
78317;BME280;67572;50.930;18.276;2023-03-02T13:15:17;99585.44;;;8.78;50.88
78317;BME280;67572;50.930;18.276;2023-03-02T13:18:25;99571.59;;;9.04;49.29
78317;BME280;67572;50.930;18.276;2023-03-02T13:21:36;99573.81;;;8.80;50.27
78317;BME280;67572;50.930;18.276;2023-03-02T13:24:48;99568.59;;;9.42;48.96
78317;BME280;67572;50.930;18.276;2023-03-02T13:27:57;99576.81;;;9.22;49.04
78317;BME280;67572;50.930;18.276;2023-03-02T13:31:18;99563.47;;;9.39;48.31
78317;BME280;67572;50.930;18.276;2023-03-02T13:34:26;99560.03;;;8.89;49.07
78317;BME280;67572;50.930;18.276;2023-03-02T13:37:35;99553.63;;;9.41;49.77
78317;BME280;67572;50.930;18.276;2023-03-02T13:40:44;99563.81;;;9.01;50.12
78317;BME280;67572;50.930;18.276;2023-03-02T13:43:52;99557.47;;;8.88;50.11
78317;BME280;67572;50.930;18.276;2023-03-02T13:46:58;99556.09;;;9.12;50.33
78317;BME280;67572;50.930;18.276;2023-03-02T13:50:07;99553.53;;;8.79;50.61
78317;BME280;67572;50.930;18.276;2023-03-02T13:53:12;99552.47;;;8.66;52.44
78317;BME280;67572;50.930;18.276;2023-03-02T13:56:18;99547.38;;;8.46;51.92
78317;BME280;67572;50.930;18.276;2023-03-02T13:59:25;99544.59;;;8.49;51.71
78317;BME280;67572;50.930;18.276;2023-03-02T14:02:31;99541.59;;;8.39;52.65
78317;BME280;67572;50.930;18.276;2023-03-02T14:05:36;99535.81;;;8.14;53.25
78317;BME280;67572;50.930;18.276;2023-03-02T14:08:41;99530.34;;;8.34;54.25
78317;BME280;67572;50.930;18.276;2023-03-02T14:11:48;99531.06;;;8.20;54.48
78317;BME280;67572;50.930;18.276;2023-03-02T14:14:57;99529.31;;;7.86;54.59
78317;BME280;67572;50.930;18.276;2023-03-02T14:18:11;99518.19;;;7.79;54.71
78317;BME280;67572;50.930;18.276;2023-03-02T14:21:25;99514.66;;;7.44;55.82
78317;BME280;67572;50.930;18.276;2023-03-02T14:24:30;99512.63;;;7.67;56.24
78317;BME280;67572;50.930;18.276;2023-03-02T14:27:36;99504.09;;;7.79;56.36
78317;BME280;67572;50.930;18.276;2023-03-02T14:30:43;99504.63;;;7.51;56.40
78317;BME280;67572;50.930;18.276;2023-03-02T14:33:49;99504.44;;;7.37;57.49
78317;BME280;67572;50.930;18.276;2023-03-02T14:36:56;99497.56;;;7.15;57.96
78317;BME280;67572;50.930;18.276;2023-03-02T14:40:03;99502.75;;;7.36;57.46
78317;BME280;67572;50.930;18.276;2023-03-02T14:43:11;99498.72;;;7.10;57.90
78317;BME280;67572;50.930;18.276;2023-03-02T14:46:17;99488.09;;;7.11;57.41
78317;BME280;67572;50.930;18.276;2023-03-02T14:49:23;99491.53;;;6.94;58.68
78317;BME280;67572;50.930;18.276;2023-03-02T14:52:31;99494.13;;;6.96;58.50
78317;BME280;67572;50.930;18.276;2023-03-02T14:55:39;99490.28;;;7.02;58.90
78317;BME280;67572;50.930;18.276;2023-03-02T14:58:43;99496.81;;;6.94;57.93
78317;BME280;67572;50.930;18.276;2023-03-02T15:01:50;99491.28;;;6.44;59.30
78317;BME280;67572;50.930;18.276;2023-03-02T15:04:56;99491.44;;;6.60;60.05
78317;BME280;67572;50.930;18.276;2023-03-02T15:08:00;99488.69;;;6.61;60.47
78317;BME280;67572;50.930;18.276;2023-03-02T15:11:05;99482.28;;;6.48;60.02
78317;BME280;67572;50.930;18.276;2023-03-02T15:14:10;99486.44;;;6.73;60.08
78317;BME280;67572;50.930;18.276;2023-03-02T15:17:16;99488.56;;;6.46;60.18
78317;BME280;67572;50.930;18.276;2023-03-02T15:20:21;99490.91;;;6.33;61.32
78317;BME280;67572;50.930;18.276;2023-03-02T15:23:26;99494.47;;;6.32;61.62
78317;BME280;67572;50.930;18.276;2023-03-02T15:26:32;99491.22;;;6.06;61.29
78317;BME280;67572;50.930;18.276;2023-03-02T15:29:37;99490.56;;;6.01;62.35
78317;BME280;67572;50.930;18.276;2023-03-02T15:32:44;99486.28;;;5.99;61.75
78317;BME280;67572;50.930;18.276;2023-03-02T15:35:50;99480.34;;;5.94;62.29
78317;BME280;67572;50.930;18.276;2023-03-02T15:38:58;99492.63;;;5.74;63.41
78317;BME280;67572;50.930;18.276;2023-03-02T15:42:04;99488.38;;;5.70;62.70
78317;BME280;67572;50.930;18.276;2023-03-02T15:45:10;99492.72;;;5.51;62.76
78317;BME280;67572;50.930;18.276;2023-03-02T15:48:17;99488.13;;;5.56;63.10
78317;BME280;67572;50.930;18.276;2023-03-02T15:51:22;99485.72;;;5.50;62.34
78317;BME280;67572;50.930;18.276;2023-03-02T15:54:28;99487.53;;;5.27;64.22
78317;BME280;67572;50.930;18.276;2023-03-02T15:57:36;99482.78;;;5.15;64.59
78317;BME280;67572;50.930;18.276;2023-03-02T16:00:41;99476.31;;;5.02;64.62
78317;BME280;67572;50.930;18.276;2023-03-02T16:03:48;99479.19;;;4.96;65.00
78317;BME280;67572;50.930;18.276;2023-03-02T16:06:54;99467.41;;;4.83;65.37
78317;BME280;67572;50.930;18.276;2023-03-02T16:10:00;99476.75;;;4.69;66.17
78317;BME280;67572;50.930;18.276;2023-03-02T16:13:05;99469.00;;;4.65;66.16
78317;BME280;67572;50.930;18.276;2023-03-02T16:16:10;99478.97;;;4.57;67.22
78317;BME280;67572;50.930;18.276;2023-03-02T16:19:18;99482.38;;;4.37;67.37
78317;BME280;67572;50.930;18.276;2023-03-02T16:22:24;99477.38;;;4.29;67.57
78317;BME280;67572;50.930;18.276;2023-03-02T16:25:29;99475.88;;;4.24;67.69
78317;BME280;67572;50.930;18.276;2023-03-02T16:28:36;99471.97;;;4.10;67.50
78317;BME280;67572;50.930;18.276;2023-03-02T16:31:44;99475.69;;;4.05;67.01